Hamburg Express — DFKM2 — position and weather

sailwx.info

Track history (hours):
 
Tides and Currents Weather Stations Pressure Air Temp Water Temp Dewpoint Dewpoint Depression Visibility Wind Speed Wind Dir Waves Ship Positions

Hamburg Express

Last reported at 2015-Jul-02 03:06 UTC. Time now 2015-Jul-02 03:37 UTC.
Position N 24°41' E 119°28'.

Length 366 m; draft 10.3 m.

Type: Cargo ship. MMSI: 218774000.

Date/timePositionNaut miles runAvg speedWind from/ knotsBaromVisibWave heightAir tempDewpointWater temp
2015-Jul-02 03:06N 24°41' E 119°28'1117.4
2015-Jul-02 02:28N 24°34' E 119°19'1817.0
2015-Jul-02 01:24N 24°22' E 119°04'1517.7
2015-Jul-02 00:33N 24°13' E 118°51'1817.8
2015-Jul-01 23:33N 24°02' E 118°36'1817.5
2015-Jul-01 22:33N 23°48' E 118°24'1919.0
2015-Jul-01 21:32N 23°37' E 118°06'2115.8
2015-Jul-01 20:14N 23°25' E 117°48'3716.7
2015-Jul-01 18:00N 23°00' E 117°18'1014.2 230 / 141003.4 5.4 27.725.324.5
2015-Jul-01 17:18N 22°57' E 117°08'1916.9
2015-Jul-01 16:10N 22°51' E 116°48'1017.0
2015-Jul-01 15:33N 22°49' E 116°37'131 9.9
2015-Jul-01 02:22N 22°34' E 114°16'0 0.0
2015-Jun-30 20:04N 22°34' E 114°16'1 0.2
2015-Jun-30 14:32N 22°34' E 114°17'16 8.2
2015-Jun-30 12:33N 22°23' E 114°31'1212.4
2015-Jun-30 11:33N 22°11' E 114°30'1515.0
2015-Jun-30 10:31N 21°56' E 114°26'19111.6
2015-Jun-29 18:00N 18°54' E 113°24'19216.0 190 / 131007.4 5.4 28.726.329.1
2015-Jun-29 06:00N 16°00' E 112°00'19916.6 190 / 111009.010.8 1.030.225.529.1
2015-Jun-28 18:00N 12°54' E 110°48'96 8.0 230 / 261010.310.8 28.525.728.8
2015-Jun-28 06:00N 11°18' E 110°54'21 1.8 210 / 241010.710.8 2.529.725.028.8
2015-Jun-27 18:00N 11°06' E 110°36'19 1.6 220 / 261010.810.8 2.528.425.428.4
2015-Jun-27 06:00N 11°00' E 110°18'110 9.1 220 / 221009.210.8 3.030.125.827.8
2015-Jun-26 18:00N 09°24' E 109°24'21217.7 250 / 121009.810.8 27.622.528.3
2015-Jun-26 06:00N 06°24' E 107°30'21618.0 200 / 121009.910.8 1.530.422.828.4
2015-Jun-25 18:00N 03°24' E 105°30'14915.8 180 / 121010.310.8 27.922.828.4
2015-Jun-25 08:33N 01°16' E 104°13'1414.3
2015-Jun-25 07:33N 01°15' E 103°59'8 8.4
2015-Jun-25 06:34N 01°16' E 103°51'1 0.6
2015-Jun-25 05:32N 01°16' E 103°50'0 0.0
2015-Jun-25 04:23N 01°16' E 103°50'0 0.0
2015-Jun-25 03:32N 01°16' E 103°50'0 0.0
2015-Jun-25 02:32N 01°16' E 103°50'0 0.0
2015-Jun-25 01:32N 01°16' E 103°50'0 0.0
2015-Jun-25 00:29N 01°16' E 103°50'0 0.0
2015-Jun-24 23:32N 01°16' E 103°50'0 0.0
2015-Jun-24 22:29N 01°16' E 103°50'0 0.0
2015-Jun-24 21:29N 01°16' E 103°50'0 0.0
2015-Jun-24 20:29N 01°16' E 103°50'0 0.0
2015-Jun-24 19:29N 01°16' E 103°50'0 0.0
2015-Jun-24 18:23N 01°16' E 103°50'0 0.0
2015-Jun-24 17:32N 01°16' E 103°50'0 0.0
2015-Jun-24 16:32N 01°16' E 103°50'0 0.0
2015-Jun-24 15:32N 01°16' E 103°50'0 0.0
2015-Jun-24 14:26N 01°16' E 103°50'0 0.0
2015-Jun-24 13:29N 01°16' E 103°50'0 0.0
2015-Jun-24 12:23N 01°16' E 103°50'0 0.0
2015-Jun-24 11:23N 01°16' E 103°50'0 0.0
2015-Jun-24 10:29N 01°16' E 103°50'0 0.0
2015-Jun-24 09:29N 01°16' E 103°50'0 0.0
2015-Jun-24 08:32N 01°16' E 103°50'0 0.0
2015-Jun-24 07:32N 01°16' E 103°50'0 0.0
2015-Jun-24 06:29N 01°16' E 103°50'0 0.0
2015-Jun-24 05:32N 01°16' E 103°50'0 0.0
2015-Jun-24 04:29N 01°16' E 103°50'0 0.0
2015-Jun-24 03:29N 01°16' E 103°50'0 0.0
2015-Jun-24 02:29N 01°16' E 103°50'0 0.0
2015-Jun-24 01:29N 01°16' E 103°50'0 0.0
2015-Jun-24 00:29N 01°16' E 103°50'0 0.0
2015-Jun-23 23:29N 01°16' E 103°50'0 0.0
2015-Jun-23 22:32N 01°16' E 103°50'0 0.0
2015-Jun-23 21:32N 01°16' E 103°50'0 0.0
2015-Jun-23 20:32N 01°16' E 103°50'0 0.0
2015-Jun-23 19:26N 01°16' E 103°50'0 0.0
2015-Jun-23 19:05N 01°16' E 103°50'  
Track history (hours):
 
Tides and Currents Weather Stations Pressure Air Temp Water Temp Dewpoint Dewpoint Depression Visibility Wind Speed Wind Dir Waves Ship Positions

Hamburg Express

Last reported at 2015-Jul-02 03:06 UTC. Time now 2015-Jul-02 03:37 UTC.
Position N 24°41' E 119°28'.

Length 366 m; draft 10.3 m.

Type: Cargo ship. MMSI: 218774000.

Date/timePositionNaut miles runAvg speedWind from/ knotsBaromVisibWave heightAir tempDewpointWater temp
2015-Jul-02 03:06N 24°41' E 119°28'1117.4
2015-Jul-02 02:28N 24°34' E 119°19'1817.0
2015-Jul-02 01:24N 24°22' E 119°04'1517.7
2015-Jul-02 00:33N 24°13' E 118°51'1817.8
2015-Jul-01 23:33N 24°02' E 118°36'1817.5
2015-Jul-01 22:33N 23°48' E 118°24'1919.0
2015-Jul-01 21:32N 23°37' E 118°06'2115.8
2015-Jul-01 20:14N 23°25' E 117°48'3716.7
2015-Jul-01 18:00N 23°00' E 117°18'1014.2 230 / 141003.4 5.4 27.725.324.5
2015-Jul-01 17:18N 22°57' E 117°08'1916.9
2015-Jul-01 16:10N 22°51' E 116°48'1017.0
2015-Jul-01 15:33N 22°49' E 116°37'131 9.9
2015-Jul-01 02:22N 22°34' E 114°16'0 0.0
2015-Jun-30 20:04N 22°34' E 114°16'1 0.2
2015-Jun-30 14:32N 22°34' E 114°17'16 8.2
2015-Jun-30 12:33N 22°23' E 114°31'1212.4
2015-Jun-30 11:33N 22°11' E 114°30'1515.0
2015-Jun-30 10:31N 21°56' E 114°26'19111.6
2015-Jun-29 18:00N 18°54' E 113°24'19216.0 190 / 131007.4 5.4 28.726.329.1
2015-Jun-29 06:00N 16°00' E 112°00'19916.6 190 / 111009.010.8 1.030.225.529.1
2015-Jun-28 18:00N 12°54' E 110°48'96 8.0 230 / 261010.310.8 28.525.728.8
2015-Jun-28 06:00N 11°18' E 110°54'21 1.8 210 / 241010.710.8 2.529.725.028.8
2015-Jun-27 18:00N 11°06' E 110°36'19 1.6 220 / 261010.810.8 2.528.425.428.4
2015-Jun-27 06:00N 11°00' E 110°18'110 9.1 220 / 221009.210.8 3.030.125.827.8
2015-Jun-26 18:00N 09°24' E 109°24'21217.7 250 / 121009.810.8 27.622.528.3
2015-Jun-26 06:00N 06°24' E 107°30'21618.0 200 / 121009.910.8 1.530.422.828.4
2015-Jun-25 18:00N 03°24' E 105°30'14915.8 180 / 121010.310.8 27.922.828.4
2015-Jun-25 08:33N 01°16' E 104°13'1414.3
2015-Jun-25 07:33N 01°15' E 103°59'8 8.4
2015-Jun-25 06:34N 01°16' E 103°51'1 0.6
2015-Jun-25 05:32N 01°16' E 103°50'0 0.0
2015-Jun-25 04:23N 01°16' E 103°50'0 0.0
2015-Jun-25 03:32N 01°16' E 103°50'0 0.0
2015-Jun-25 02:32N 01°16' E 103°50'0 0.0
2015-Jun-25 01:32N 01°16' E 103°50'0 0.0
2015-Jun-25 00:29N 01°16' E 103°50'0 0.0
2015-Jun-24 23:32N 01°16' E 103°50'0 0.0
2015-Jun-24 22:29N 01°16' E 103°50'0 0.0
2015-Jun-24 21:29N 01°16' E 103°50'0 0.0
2015-Jun-24 20:29N 01°16' E 103°50'0 0.0
2015-Jun-24 19:29N 01°16' E 103°50'0 0.0
2015-Jun-24 18:23N 01°16' E 103°50'0 0.0
2015-Jun-24 17:32N 01°16' E 103°50'0 0.0
2015-Jun-24 16:32N 01°16' E 103°50'0 0.0
2015-Jun-24 15:32N 01°16' E 103°50'0 0.0
2015-Jun-24 14:26N 01°16' E 103°50'0 0.0
2015-Jun-24 13:29N 01°16' E 103°50'0 0.0
2015-Jun-24 12:23N 01°16' E 103°50'0 0.0
2015-Jun-24 11:23N 01°16' E 103°50'0 0.0
2015-Jun-24 10:29N 01°16' E 103°50'0 0.0
2015-Jun-24 09:29N 01°16' E 103°50'0 0.0
2015-Jun-24 08:32N 01°16' E 103°50'0 0.0
2015-Jun-24 07:32N 01°16' E 103°50'0 0.0
2015-Jun-24 06:29N 01°16' E 103°50'0 0.0
2015-Jun-24 05:32N 01°16' E 103°50'0 0.0
2015-Jun-24 04:29N 01°16' E 103°50'0 0.0
2015-Jun-24 03:29N 01°16' E 103°50'0 0.0
2015-Jun-24 02:29N 01°16' E 103°50'0 0.0
2015-Jun-24 01:29N 01°16' E 103°50'0 0.0
2015-Jun-24 00:29N 01°16' E 103°50'0 0.0
2015-Jun-23 23:29N 01°16' E 103°50'0 0.0
2015-Jun-23 22:32N 01°16' E 103°50'0 0.0
2015-Jun-23 21:32N 01°16' E 103°50'0 0.0
2015-Jun-23 20:32N 01°16' E 103°50'0 0.0
2015-Jun-23 19:26N 01°16' E 103°50'0 0.0
2015-Jun-23 19:05N 01°16' E 103°50'  

Dump ship's entire track history